Terminal Aerodrome Forecast
Issued by NWS Bismarck, ND

Home | Current Version | Previous Version | Graphics & Text | Print | Product List | Glossary On
Versions: 1 2 3 4 5 6 7 8 9 10 11 12 13 14 15 16 17 18 19
404
FTUS43 KBIS 181312 AAA
TAFBIS
TAF AMD
KBIS 181312Z 1813/1912 32009KT P6SM FEW015
      TEMPO 1813/1815 SCT015 BKN030
     FM181500 32009KT P6SM SCT200
     FM181800 31013KT P6SM FEW250
     FM182300 30008KT P6SM FEW250
     FM190300 23004KT P6SM FEW250=

USA.gov is the U.S. government's official web portal to all federal, state and local government web resources and services.